Portada
METAR-TAF:

METAR-TAF

Aeroports :

Almagro, Espanya

latitud: 38-57-11N, longitud: 3-44-29W, altitud: 629 m

Observació

L'informe es va fer fa 1 hora i 7 minuts, a les 15:00 UTC
Vent 5 kt del Nord/Nord-Est, variant entre Nord/Nord-Oest i Est
Temperatura 14°C
Humitat 51%
Pressió 1009 hPa
Visibilitat 10 km o més
Núvols disperses a una alçada de 2500 ft

METAR: LEAO 221500Z 02005KT 330V100 9999 SCT025 14/04 Q1009

Hora: 18:07 (16:07 UTC)

Pronòstic

L'informe es va fer fa 2 hores i 7 minuts, a les 14:00 UTC
Pronòstic vàlid del 22 a les 15 UTC al 22 a les 24 UTC
Vent 6 kt del Est/Nord-Est
Visibilitat 10 km o més
Núvols disperses a una alçada de 2500 ft
Temporalment
l' 22 a les 15 UTC al 22 a les 24 UTC
Visibilitat: 3000 m
Cel ennuvolat a una alçada de 1500 ft
Escasses núvols a una alçada de 2500 ft, Cumulus congestus.
pluja, xàfecs de pluja

TAF: LEAO 221400Z 2215/2224 07006KT 9999 SCT025 TEMPO 2215/2224 3000 RA SHRA BKN015 FEW025TCU

Observacions i pronòstics meteorològics de més de 4000 aeroports (METAR i TAF).

Les estacions disponibles són els punts grocs i vermells al mapa.

Posi el ratolí al punt desitjat per veure el nom de l'estació.

Feu clic per veure les observacions i els pronòstics meteorològics.

Per canviar el mapa: feu clic els botons verds amb una creu de color negre per apropar; al botó verd amb un guió per allunyar la imatge; o en les fletxes verdes per a mapes adjacents.


METAR-TAF: